sensor_id;sensor_type;location;lat;lon;timestamp;P1;durP1;ratioP1;P2;durP2;ratioP2
10303;SDS011;5197;48.152;8.590;2024-01-30T00:00:47;16.57;;;12.33;;
10303;SDS011;5197;48.152;8.590;2024-01-30T00:03:15;16.93;;;12.30;;
10303;SDS011;5197;48.152;8.590;2024-01-30T00:05:42;17.57;;;12.30;;
10303;SDS011;5197;48.152;8.590;2024-01-30T00:08:10;14.30;;;11.03;;
10303;SDS011;5197;48.152;8.590;2024-01-30T00:10:37;14.43;;;10.90;;
10303;SDS011;5197;48.152;8.590;2024-01-30T00:13:04;13.97;;;10.67;;
10303;SDS011;5197;48.152;8.590;2024-01-30T00:15:31;14.17;;;10.87;;
10303;SDS011;5197;48.152;8.590;2024-01-30T00:17:59;15.37;;;11.03;;
10303;SDS011;5197;48.152;8.590;2024-01-30T00:20:26;15.40;;;10.97;;
10303;SDS011;5197;48.152;8.590;2024-01-30T00:22:53;13.37;;;10.43;;
10303;SDS011;5197;48.152;8.590;2024-01-30T00:25:20;13.07;;;10.07;;
10303;SDS011;5197;48.152;8.590;2024-01-30T00:27:47;14.80;;;9.50;;
10303;SDS011;5197;48.152;8.590;2024-01-30T00:30:15;12.87;;;9.77;;
10303;SDS011;5197;48.152;8.590;2024-01-30T00:32:42;11.97;;;9.33;;
10303;SDS011;5197;48.152;8.590;2024-01-30T00:35:09;9.90;;;8.57;;
10303;SDS011;5197;48.152;8.590;2024-01-30T00:37:37;11.47;;;9.33;;
10303;SDS011;5197;48.152;8.590;2024-01-30T00:40:04;11.57;;;9.07;;
10303;SDS011;5197;48.152;8.590;2024-01-30T00:42:32;12.80;;;9.43;;
10303;SDS011;5197;48.152;8.590;2024-01-30T00:45:00;12.20;;;9.37;;
10303;SDS011;5197;48.152;8.590;2024-01-30T00:47:26;10.57;;;9.07;;
10303;SDS011;5197;48.152;8.590;2024-01-30T00:49:55;13.70;;;8.90;;
10303;SDS011;5197;48.152;8.590;2024-01-30T00:52:22;12.80;;;9.37;;
10303;SDS011;5197;48.152;8.590;2024-01-30T00:54:49;13.10;;;8.80;;
10303;SDS011;5197;48.152;8.590;2024-01-30T00:57:16;10.37;;;8.27;;
10303;SDS011;5197;48.152;8.590;2024-01-30T00:59:43;12.17;;;8.70;;
10303;SDS011;5197;48.152;8.590;2024-01-30T01:02:11;11.73;;;8.73;;
10303;SDS011;5197;48.152;8.590;2024-01-30T01:04:38;12.03;;;8.67;;
10303;SDS011;5197;48.152;8.590;2024-01-30T01:07:05;10.73;;;8.13;;
10303;SDS011;5197;48.152;8.590;2024-01-30T01:09:32;10.00;;;7.67;;
10303;SDS011;5197;48.152;8.590;2024-01-30T01:11:59;9.43;;;7.50;;
10303;SDS011;5197;48.152;8.590;2024-01-30T01:14:26;8.97;;;7.53;;
10303;SDS011;5197;48.152;8.590;2024-01-30T01:16:53;9.73;;;6.93;;
10303;SDS011;5197;48.152;8.590;2024-01-30T01:19:21;9.97;;;7.77;;
10303;SDS011;5197;48.152;8.590;2024-01-30T01:21:48;8.63;;;7.47;;
10303;SDS011;5197;48.152;8.590;2024-01-30T01:24:16;7.93;;;6.73;;
10303;SDS011;5197;48.152;8.590;2024-01-30T01:26:43;8.83;;;6.77;;
10303;SDS011;5197;48.152;8.590;2024-01-30T01:29:09;9.17;;;7.17;;
10303;SDS011;5197;48.152;8.590;2024-01-30T01:31:38;8.80;;;6.90;;
10303;SDS011;5197;48.152;8.590;2024-01-30T01:34:10;7.40;;;6.67;;
10303;SDS011;5197;48.152;8.590;2024-01-30T01:36:38;7.13;;;6.43;;
10303;SDS011;5197;48.152;8.590;2024-01-30T01:39:06;8.13;;;6.23;;
10303;SDS011;5197;48.152;8.590;2024-01-30T01:41:35;8.23;;;6.40;;
10303;SDS011;5197;48.152;8.590;2024-01-30T01:44:02;8.30;;;6.67;;
10303;SDS011;5197;48.152;8.590;2024-01-30T01:46:29;7.63;;;6.07;;
10303;SDS011;5197;48.152;8.590;2024-01-30T01:48:59;6.30;;;5.23;;
10303;SDS011;5197;48.152;8.590;2024-01-30T01:51:28;8.57;;;6.30;;
10303;SDS011;5197;48.152;8.590;2024-01-30T01:53:57;8.03;;;6.50;;
10303;SDS011;5197;48.152;8.590;2024-01-30T01:56:26;6.97;;;5.77;;
10303;SDS011;5197;48.152;8.590;2024-01-30T01:58:54;5.90;;;5.23;;
10303;SDS011;5197;48.152;8.590;2024-01-30T02:01:21;8.53;;;5.67;;
10303;SDS011;5197;48.152;8.590;2024-01-30T02:03:51;7.13;;;5.87;;
10303;SDS011;5197;48.152;8.590;2024-01-30T02:06:18;5.80;;;5.20;;
10303;SDS011;5197;48.152;8.590;2024-01-30T02:08:46;8.50;;;5.60;;
10303;SDS011;5197;48.152;8.590;2024-01-30T02:11:13;7.33;;;5.40;;
10303;SDS011;5197;48.152;8.590;2024-01-30T02:13:40;5.60;;;4.93;;
10303;SDS011;5197;48.152;8.590;2024-01-30T02:16:07;6.03;;;5.33;;
10303;SDS011;5197;48.152;8.590;2024-01-30T02:18:34;8.53;;;5.33;;
10303;SDS011;5197;48.152;8.590;2024-01-30T02:21:05;6.47;;;5.00;;
10303;SDS011;5197;48.152;8.590;2024-01-30T02:23:32;6.80;;;5.83;;
10303;SDS011;5197;48.152;8.590;2024-01-30T02:26:00;10.23;;;5.60;;
10303;SDS011;5197;48.152;8.590;2024-01-30T02:28:27;5.70;;;4.77;;
10303;SDS011;5197;48.152;8.590;2024-01-30T02:30:54;5.30;;;4.70;;
10303;SDS011;5197;48.152;8.590;2024-01-30T02:33:21;5.13;;;4.63;;
10303;SDS011;5197;48.152;8.590;2024-01-30T02:35:51;6.87;;;4.97;;
10303;SDS011;5197;48.152;8.590;2024-01-30T02:38:18;7.00;;;4.83;;
10303;SDS011;5197;48.152;8.590;2024-01-30T02:40:45;4.83;;;4.43;;
10303;SDS011;5197;48.152;8.590;2024-01-30T02:43:12;4.77;;;4.37;;
10303;SDS011;5197;48.152;8.590;2024-01-30T02:45:39;5.57;;;4.63;;
10303;SDS011;5197;48.152;8.590;2024-01-30T02:48:07;4.50;;;4.10;;
10303;SDS011;5197;48.152;8.590;2024-01-30T02:50:34;6.00;;;4.57;;
10303;SDS011;5197;48.152;8.590;2024-01-30T02:53:01;6.97;;;4.60;;
10303;SDS011;5197;48.152;8.590;2024-01-30T02:55:28;6.20;;;4.73;;
10303;SDS011;5197;48.152;8.590;2024-01-30T02:57:55;6.63;;;4.90;;
10303;SDS011;5197;48.152;8.590;2024-01-30T03:00:23;5.40;;;4.70;;
10303;SDS011;5197;48.152;8.590;2024-01-30T03:02:50;5.53;;;4.87;;
10303;SDS011;5197;48.152;8.590;2024-01-30T03:05:17;7.90;;;4.63;;
10303;SDS011;5197;48.152;8.590;2024-01-30T03:07:44;6.23;;;4.73;;
10303;SDS011;5197;48.152;8.590;2024-01-30T03:10:12;5.00;;;4.50;;
10303;SDS011;5197;48.152;8.590;2024-01-30T03:12:39;6.40;;;5.03;;
10303;SDS011;5197;48.152;8.590;2024-01-30T03:15:06;5.33;;;4.60;;
10303;SDS011;5197;48.152;8.590;2024-01-30T03:17:33;4.93;;;4.43;;
10303;SDS011;5197;48.152;8.590;2024-01-30T03:20:00;7.40;;;5.57;;
10303;SDS011;5197;48.152;8.590;2024-01-30T03:22:27;5.97;;;5.17;;
10303;SDS011;5197;48.152;8.590;2024-01-30T03:24:54;6.80;;;5.27;;
10303;SDS011;5197;48.152;8.590;2024-01-30T03:27:21;8.33;;;5.97;;
10303;SDS011;5197;48.152;8.590;2024-01-30T03:29:48;7.70;;;6.53;;
10303;SDS011;5197;48.152;8.590;2024-01-30T03:32:15;9.07;;;6.77;;
10303;SDS011;5197;48.152;8.590;2024-01-30T03:34:42;10.33;;;7.30;;
10303;SDS011;5197;48.152;8.590;2024-01-30T03:37:10;9.90;;;7.70;;
10303;SDS011;5197;48.152;8.590;2024-01-30T03:39:37;10.70;;;8.67;;
10303;SDS011;5197;48.152;8.590;2024-01-30T03:42:04;12.00;;;8.60;;
10303;SDS011;5197;48.152;8.590;2024-01-30T03:44:31;10.67;;;7.77;;
10303;SDS011;5197;48.152;8.590;2024-01-30T03:46:58;10.70;;;8.27;;
10303;SDS011;5197;48.152;8.590;2024-01-30T03:49:25;10.73;;;8.33;;
10303;SDS011;5197;48.152;8.590;2024-01-30T03:51:52;11.07;;;8.40;;
10303;SDS011;5197;48.152;8.590;2024-01-30T03:54:19;12.70;;;9.20;;
10303;SDS011;5197;48.152;8.590;2024-01-30T03:56:46;15.30;;;9.70;;
10303;SDS011;5197;48.152;8.590;2024-01-30T03:59:13;12.13;;;8.97;;
10303;SDS011;5197;48.152;8.590;2024-01-30T04:01:40;10.23;;;8.60;;
10303;SDS011;5197;48.152;8.590;2024-01-30T04:04:07;11.90;;;9.43;;
10303;SDS011;5197;48.152;8.590;2024-01-30T04:06:34;14.30;;;9.57;;
10303;SDS011;5197;48.152;8.590;2024-01-30T04:09:02;14.57;;;9.20;;
10303;SDS011;5197;48.152;8.590;2024-01-30T04:11:30;12.80;;;9.13;;
10303;SDS011;5197;48.152;8.590;2024-01-30T04:13:57;12.20;;;9.37;;
10303;SDS011;5197;48.152;8.590;2024-01-30T04:16:24;14.87;;;10.00;;
10303;SDS011;5197;48.152;8.590;2024-01-30T04:18:52;14.73;;;10.17;;
10303;SDS011;5197;48.152;8.590;2024-01-30T04:21:20;14.43;;;10.23;;
10303;SDS011;5197;48.152;8.590;2024-01-30T04:23:48;15.87;;;11.43;;
10303;SDS011;5197;48.152;8.590;2024-01-30T04:26:15;17.00;;;10.80;;
10303;SDS011;5197;48.152;8.590;2024-01-30T04:28:42;14.77;;;10.73;;
10303;SDS011;5197;48.152;8.590;2024-01-30T04:31:10;14.57;;;11.73;;
10303;SDS011;5197;48.152;8.590;2024-01-30T04:33:38;16.00;;;10.97;;
10303;SDS011;5197;48.152;8.590;2024-01-30T04:36:07;18.60;;;12.07;;
10303;SDS011;5197;48.152;8.590;2024-01-30T04:38:36;15.53;;;11.77;;
10303;SDS011;5197;48.152;8.590;2024-01-30T04:41:05;19.20;;;12.87;;
10303;SDS011;5197;48.152;8.590;2024-01-30T04:43:31;20.67;;;13.70;;
10303;SDS011;5197;48.152;8.590;2024-01-30T04:45:58;19.17;;;14.60;;
10303;SDS011;5197;48.152;8.590;2024-01-30T04:48:25;18.87;;;14.10;;
10303;SDS011;5197;48.152;8.590;2024-01-30T04:50:52;17.67;;;13.33;;
10303;SDS011;5197;48.152;8.590;2024-01-30T04:53:20;22.20;;;14.37;;
10303;SDS011;5197;48.152;8.590;2024-01-30T04:55:47;19.40;;;13.93;;
10303;SDS011;5197;48.152;8.590;2024-01-30T04:58:13;19.97;;;14.53;;
10303;SDS011;5197;48.152;8.590;2024-01-30T05:00:41;23.40;;;15.43;;
10303;SDS011;5197;48.152;8.590;2024-01-30T05:03:08;25.10;;;16.10;;
10303;SDS011;5197;48.152;8.590;2024-01-30T05:05:34;23.77;;;15.53;;
10303;SDS011;5197;48.152;8.590;2024-01-30T05:08:02;22.47;;;15.07;;
10303;SDS011;5197;48.152;8.590;2024-01-30T05:10:29;22.87;;;15.13;;
10303;SDS011;5197;48.152;8.590;2024-01-30T05:12:56;23.27;;;16.00;;
10303;SDS011;5197;48.152;8.590;2024-01-30T05:15:23;24.47;;;15.57;;
10303;SDS011;5197;48.152;8.590;2024-01-30T05:17:50;25.57;;;15.70;;
10303;SDS011;5197;48.152;8.590;2024-01-30T05:20:17;24.87;;;15.47;;
10303;SDS011;5197;48.152;8.590;2024-01-30T05:22:44;23.40;;;15.67;;
10303;SDS011;5197;48.152;8.590;2024-01-30T05:25:12;22.67;;;16.07;;
10303;SDS011;5197;48.152;8.590;2024-01-30T05:27:39;23.63;;;16.70;;
10303;SDS011;5197;48.152;8.590;2024-01-30T05:30:06;23.93;;;16.87;;
10303;SDS011;5197;48.152;8.590;2024-01-30T05:32:34;29.57;;;19.67;;
10303;SDS011;5197;48.152;8.590;2024-01-30T05:35:01;30.40;;;19.03;;
10303;SDS011;5197;48.152;8.590;2024-01-30T05:37:29;33.77;;;21.70;;
10303;SDS011;5197;48.152;8.590;2024-01-30T05:39:56;23.80;;;17.10;;
10303;SDS011;5197;48.152;8.590;2024-01-30T05:42:25;24.63;;;17.67;;
10303;SDS011;5197;48.152;8.590;2024-01-30T05:44:53;23.40;;;16.53;;
10303;SDS011;5197;48.152;8.590;2024-01-30T05:47:20;24.60;;;16.63;;
10303;SDS011;5197;48.152;8.590;2024-01-30T05:49:47;22.77;;;17.00;;
10303;SDS011;5197;48.152;8.590;2024-01-30T05:52:14;21.30;;;15.90;;
10303;SDS011;5197;48.152;8.590;2024-01-30T05:54:41;23.47;;;16.80;;
10303;SDS011;5197;48.152;8.590;2024-01-30T05:57:09;22.07;;;15.90;;
10303;SDS011;5197;48.152;8.590;2024-01-30T05:59:36;24.10;;;16.77;;
10303;SDS011;5197;48.152;8.590;2024-01-30T06:02:06;23.40;;;15.50;;
10303;SDS011;5197;48.152;8.590;2024-01-30T06:04:34;20.83;;;14.37;;
10303;SDS011;5197;48.152;8.590;2024-01-30T06:07:01;21.30;;;14.97;;
10303;SDS011;5197;48.152;8.590;2024-01-30T06:09:28;22.37;;;14.40;;
10303;SDS011;5197;48.152;8.590;2024-01-30T06:11:55;24.23;;;16.47;;
10303;SDS011;5197;48.152;8.590;2024-01-30T06:14:22;23.60;;;15.43;;
10303;SDS011;5197;48.152;8.590;2024-01-30T06:16:50;27.30;;;18.70;;
10303;SDS011;5197;48.152;8.590;2024-01-30T06:19:17;21.53;;;15.83;;
10303;SDS011;5197;48.152;8.590;2024-01-30T06:21:44;19.23;;;14.13;;
10303;SDS011;5197;48.152;8.590;2024-01-30T06:24:11;20.83;;;13.73;;
10303;SDS011;5197;48.152;8.590;2024-01-30T06:26:38;20.27;;;14.17;;
10303;SDS011;5197;48.152;8.590;2024-01-30T06:29:06;18.73;;;13.77;;
10303;SDS011;5197;48.152;8.590;2024-01-30T06:31:39;19.27;;;13.27;;
10303;SDS011;5197;48.152;8.590;2024-01-30T06:34:08;18.77;;;13.73;;
10303;SDS011;5197;48.152;8.590;2024-01-30T06:36:36;20.27;;;12.53;;
10303;SDS011;5197;48.152;8.590;2024-01-30T06:39:03;19.77;;;13.77;;
10303;SDS011;5197;48.152;8.590;2024-01-30T06:41:30;17.70;;;12.63;;
10303;SDS011;5197;48.152;8.590;2024-01-30T06:43:58;16.40;;;12.17;;
10303;SDS011;5197;48.152;8.590;2024-01-30T06:46:25;18.13;;;11.47;;
10303;SDS011;5197;48.152;8.590;2024-01-30T06:48:52;16.80;;;11.43;;
10303;SDS011;5197;48.152;8.590;2024-01-30T06:51:19;18.47;;;11.83;;
10303;SDS011;5197;48.152;8.590;2024-01-30T06:53:46;14.20;;;10.50;;
10303;SDS011;5197;48.152;8.590;2024-01-30T06:56:13;17.50;;;12.00;;
10303;SDS011;5197;48.152;8.590;2024-01-30T06:58:40;13.37;;;11.00;;
10303;SDS011;5197;48.152;8.590;2024-01-30T07:01:07;14.37;;;10.83;;
10303;SDS011;5197;48.152;8.590;2024-01-30T07:03:34;14.63;;;10.80;;
10303;SDS011;5197;48.152;8.590;2024-01-30T07:06:02;16.50;;;11.63;;
10303;SDS011;5197;48.152;8.590;2024-01-30T07:08:29;13.67;;;10.67;;
10303;SDS011;5197;48.152;8.590;2024-01-30T07:10:56;13.47;;;9.97;;
10303;SDS011;5197;48.152;8.590;2024-01-30T07:13:27;15.87;;;10.27;;
10303;SDS011;5197;48.152;8.590;2024-01-30T07:15:55;14.87;;;10.17;;
10303;SDS011;5197;48.152;8.590;2024-01-30T07:18:22;13.57;;;10.30;;
10303;SDS011;5197;48.152;8.590;2024-01-30T07:20:49;15.77;;;10.73;;
10303;SDS011;5197;48.152;8.590;2024-01-30T07:23:16;15.30;;;10.40;;
10303;SDS011;5197;48.152;8.590;2024-01-30T07:25:44;13.93;;;10.63;;
10303;SDS011;5197;48.152;8.590;2024-01-30T07:28:17;12.27;;;10.00;;
10303;SDS011;5197;48.152;8.590;2024-01-30T07:30:44;15.03;;;9.83;;
10303;SDS011;5197;48.152;8.590;2024-01-30T07:33:12;13.57;;;9.57;;
10303;SDS011;5197;48.152;8.590;2024-01-30T07:35:39;14.60;;;10.47;;
10303;SDS011;5197;48.152;8.590;2024-01-30T07:38:07;11.37;;;8.83;;
10303;SDS011;5197;48.152;8.590;2024-01-30T07:40:37;14.00;;;9.03;;
10303;SDS011;5197;48.152;8.590;2024-01-30T07:43:04;17.67;;;8.93;;
10303;SDS011;5197;48.152;8.590;2024-01-30T07:45:31;13.77;;;9.67;;
10303;SDS011;5197;48.152;8.590;2024-01-30T07:48:01;12.00;;;8.60;;
10303;SDS011;5197;48.152;8.590;2024-01-30T07:50:29;11.43;;;7.60;;
10303;SDS011;5197;48.152;8.590;2024-01-30T07:52:56;8.80;;;7.40;;
10303;SDS011;5197;48.152;8.590;2024-01-30T07:55:23;8.43;;;6.80;;
10303;SDS011;5197;48.152;8.590;2024-01-30T07:57:57;9.10;;;6.83;;
10303;SDS011;5197;48.152;8.590;2024-01-30T08:00:26;11.17;;;7.17;;
10303;SDS011;5197;48.152;8.590;2024-01-30T08:02:56;8.67;;;7.43;;
10303;SDS011;5197;48.152;8.590;2024-01-30T08:05:23;12.13;;;7.00;;
10303;SDS011;5197;48.152;8.590;2024-01-30T08:07:50;11.67;;;7.37;;
10303;SDS011;5197;48.152;8.590;2024-01-30T08:10:18;8.57;;;7.07;;
10303;SDS011;5197;48.152;8.590;2024-01-30T08:12:45;8.37;;;7.47;;
10303;SDS011;5197;48.152;8.590;2024-01-30T08:15:13;8.60;;;7.13;;
10303;SDS011;5197;48.152;8.590;2024-01-30T08:17:40;10.57;;;6.67;;
10303;SDS011;5197;48.152;8.590;2024-01-30T08:20:07;7.87;;;6.90;;
10303;SDS011;5197;48.152;8.590;2024-01-30T08:22:38;8.43;;;6.50;;
10303;SDS011;5197;48.152;8.590;2024-01-30T08:25:07;8.13;;;6.53;;
10303;SDS011;5197;48.152;8.590;2024-01-30T08:27:35;8.50;;;6.93;;
10303;SDS011;5197;48.152;8.590;2024-01-30T08:30:08;10.33;;;7.43;;
10303;SDS011;5197;48.152;8.590;2024-01-30T08:32:35;7.80;;;6.57;;
10303;SDS011;5197;48.152;8.590;2024-01-30T08:35:03;10.13;;;6.80;;
10303;SDS011;5197;48.152;8.590;2024-01-30T08:37:30;7.77;;;6.77;;
10303;SDS011;5197;48.152;8.590;2024-01-30T08:39:58;9.27;;;6.60;;
10303;SDS011;5197;48.152;8.590;2024-01-30T08:42:25;8.73;;;7.10;;
10303;SDS011;5197;48.152;8.590;2024-01-30T08:44:52;9.57;;;6.17;;
10303;SDS011;5197;48.152;8.590;2024-01-30T08:47:19;7.73;;;5.93;;
10303;SDS011;5197;48.152;8.590;2024-01-30T08:49:47;9.07;;;6.47;;
10303;SDS011;5197;48.152;8.590;2024-01-30T08:52:17;7.40;;;6.03;;
10303;SDS011;5197;48.152;8.590;2024-01-30T08:54:44;8.07;;;6.37;;
10303;SDS011;5197;48.152;8.590;2024-01-30T08:57:12;7.73;;;6.40;;
10303;SDS011;5197;48.152;8.590;2024-01-30T08:59:39;6.70;;;5.60;;
10303;SDS011;5197;48.152;8.590;2024-01-30T09:02:06;10.90;;;6.00;;
10303;SDS011;5197;48.152;8.590;2024-01-30T09:04:38;5.97;;;5.37;;
10303;SDS011;5197;48.152;8.590;2024-01-30T09:07:06;7.33;;;4.90;;
10303;SDS011;5197;48.152;8.590;2024-01-30T09:09:40;5.77;;;5.03;;
10303;SDS011;5197;48.152;8.590;2024-01-30T09:12:07;5.67;;;5.10;;
10303;SDS011;5197;48.152;8.590;2024-01-30T09:14:36;6.27;;;4.90;;
10303;SDS011;5197;48.152;8.590;2024-01-30T09:17:04;8.53;;;5.53;;
10303;SDS011;5197;48.152;8.590;2024-01-30T09:19:31;6.00;;;4.43;;
10303;SDS011;5197;48.152;8.590;2024-01-30T09:21:59;7.40;;;5.37;;
10303;SDS011;5197;48.152;8.590;2024-01-30T09:24:26;6.20;;;5.30;;
10303;SDS011;5197;48.152;8.590;2024-01-30T09:26:54;8.10;;;4.97;;
10303;SDS011;5197;48.152;8.590;2024-01-30T09:29:21;6.83;;;4.77;;
10303;SDS011;5197;48.152;8.590;2024-01-30T09:31:48;7.67;;;4.53;;
10303;SDS011;5197;48.152;8.590;2024-01-30T09:34:15;7.00;;;4.43;;
10303;SDS011;5197;48.152;8.590;2024-01-30T09:36:42;6.83;;;4.77;;
10303;SDS011;5197;48.152;8.590;2024-01-30T09:39:09;7.83;;;4.53;;
10303;SDS011;5197;48.152;8.590;2024-01-30T09:41:40;7.70;;;4.90;;
10303;SDS011;5197;48.152;8.590;2024-01-30T09:44:15;8.23;;;5.20;;
10303;SDS011;5197;48.152;8.590;2024-01-30T09:46:42;6.83;;;4.70;;
10303;SDS011;5197;48.152;8.590;2024-01-30T09:49:12;8.77;;;4.90;;
10303;SDS011;5197;48.152;8.590;2024-01-30T09:51:42;6.50;;;4.67;;
10303;SDS011;5197;48.152;8.590;2024-01-30T09:54:11;5.67;;;4.17;;
10303;SDS011;5197;48.152;8.590;2024-01-30T09:56:41;4.30;;;3.60;;
10303;SDS011;5197;48.152;8.590;2024-01-30T09:59:09;6.10;;;4.53;;
10303;SDS011;5197;48.152;8.590;2024-01-30T10:01:36;7.23;;;4.80;;
10303;SDS011;5197;48.152;8.590;2024-01-30T10:04:04;6.83;;;4.83;;
10303;SDS011;5197;48.152;8.590;2024-01-30T10:06:32;5.77;;;4.90;;
10303;SDS011;5197;48.152;8.590;2024-01-30T10:08:59;9.00;;;4.97;;
10303;SDS011;5197;48.152;8.590;2024-01-30T10:11:26;5.67;;;4.50;;
10303;SDS011;5197;48.152;8.590;2024-01-30T10:13:53;5.40;;;4.90;;
10303;SDS011;5197;48.152;8.590;2024-01-30T10:16:20;5.70;;;4.97;;
10303;SDS011;5197;48.152;8.590;2024-01-30T10:18:47;6.47;;;5.23;;
10303;SDS011;5197;48.152;8.590;2024-01-30T10:21:15;5.80;;;5.07;;
10303;SDS011;5197;48.152;8.590;2024-01-30T10:23:43;7.63;;;5.07;;
10303;SDS011;5197;48.152;8.590;2024-01-30T10:26:11;6.07;;;5.40;;
10303;SDS011;5197;48.152;8.590;2024-01-30T10:28:41;6.13;;;5.20;;
10303;SDS011;5197;48.152;8.590;2024-01-30T10:31:08;15.70;;;5.53;;
10303;SDS011;5197;48.152;8.590;2024-01-30T10:33:35;14.07;;;5.87;;
10303;SDS011;5197;48.152;8.590;2024-01-30T10:36:03;13.93;;;5.17;;
10303;SDS011;5197;48.152;8.590;2024-01-30T10:38:32;11.50;;;5.47;;
10303;SDS011;5197;48.152;8.590;2024-01-30T10:41:00;12.30;;;5.80;;
10303;SDS011;5197;48.152;8.590;2024-01-30T10:43:31;13.20;;;6.33;;
10303;SDS011;5197;48.152;8.590;2024-01-30T10:46:20;14.77;;;6.17;;
10303;SDS011;5197;48.152;8.590;2024-01-30T10:48:58;11.67;;;5.77;;
10303;SDS011;5197;48.152;8.590;2024-01-30T10:51:27;11.03;;;5.20;;
10303;SDS011;5197;48.152;8.590;2024-01-30T10:53:55;7.43;;;4.40;;
10303;SDS011;5197;48.152;8.590;2024-01-30T10:56:24;7.27;;;4.87;;
10303;SDS011;5197;48.152;8.590;2024-01-30T10:58:52;9.30;;;4.10;;
10303;SDS011;5197;48.152;8.590;2024-01-30T11:01:20;5.10;;;4.40;;
10303;SDS011;5197;48.152;8.590;2024-01-30T11:03:51;8.30;;;5.13;;
10303;SDS011;5197;48.152;8.590;2024-01-30T11:06:24;10.43;;;5.07;;
10303;SDS011;5197;48.152;8.590;2024-01-30T11:09:02;8.07;;;4.30;;
10303;SDS011;5197;48.152;8.590;2024-01-30T11:14:16;16.07;;;5.93;;
10303;SDS011;5197;48.152;8.590;2024-01-30T11:16:49;9.67;;;4.80;;
10303;SDS011;5197;48.152;8.590;2024-01-30T11:19:21;10.10;;;5.10;;
10303;SDS011;5197;48.152;8.590;2024-01-30T11:21:52;7.70;;;4.60;;
10303;SDS011;5197;48.152;8.590;2024-01-30T11:24:20;9.37;;;5.03;;
10303;SDS011;5197;48.152;8.590;2024-01-30T11:26:57;9.03;;;5.93;;
10303;SDS011;5197;48.152;8.590;2024-01-30T11:29:25;8.13;;;5.47;;
10303;SDS011;5197;48.152;8.590;2024-01-30T11:31:54;8.37;;;5.40;;
10303;SDS011;5197;48.152;8.590;2024-01-30T11:34:23;11.27;;;6.13;;
10303;SDS011;5197;48.152;8.590;2024-01-30T11:36:57;9.53;;;6.20;;
10303;SDS011;5197;48.152;8.590;2024-01-30T11:39:26;9.57;;;5.43;;
10303;SDS011;5197;48.152;8.590;2024-01-30T11:41:54;10.17;;;6.77;;
10303;SDS011;5197;48.152;8.590;2024-01-30T11:44:23;8.90;;;6.43;;
10303;SDS011;5197;48.152;8.590;2024-01-30T11:46:52;14.90;;;6.40;;
10303;SDS011;5197;48.152;8.590;2024-01-30T11:49:19;10.30;;;5.33;;
10303;SDS011;5197;48.152;8.590;2024-01-30T11:51:46;8.60;;;6.23;;
10303;SDS011;5197;48.152;8.590;2024-01-30T11:54:17;7.93;;;5.90;;
10303;SDS011;5197;48.152;8.590;2024-01-30T11:56:44;8.30;;;6.47;;
10303;SDS011;5197;48.152;8.590;2024-01-30T11:59:11;8.03;;;6.07;;
10303;SDS011;5197;48.152;8.590;2024-01-30T12:01:38;7.70;;;6.10;;
10303;SDS011;5197;48.152;8.590;2024-01-30T12:04:05;8.80;;;6.00;;
10303;SDS011;5197;48.152;8.590;2024-01-30T12:06:36;7.87;;;6.00;;
10303;SDS011;5197;48.152;8.590;2024-01-30T12:09:05;7.80;;;6.90;;
10303;SDS011;5197;48.152;8.590;2024-01-30T12:11:45;7.07;;;6.00;;
10303;SDS011;5197;48.152;8.590;2024-01-30T12:14:12;9.23;;;6.60;;
10303;SDS011;5197;48.152;8.590;2024-01-30T12:16:40;8.43;;;6.70;;
10303;SDS011;5197;48.152;8.590;2024-01-30T12:19:08;12.33;;;7.27;;
10303;SDS011;5197;48.152;8.590;2024-01-30T12:21:35;11.50;;;6.60;;
10303;SDS011;5197;48.152;8.590;2024-01-30T12:24:03;11.13;;;7.53;;
10303;SDS011;5197;48.152;8.590;2024-01-30T12:26:30;11.17;;;8.07;;
10303;SDS011;5197;48.152;8.590;2024-01-30T12:28:57;13.10;;;7.80;;
10303;SDS011;5197;48.152;8.590;2024-01-30T12:31:25;11.47;;;8.57;;
10303;SDS011;5197;48.152;8.590;2024-01-30T12:33:55;11.80;;;7.60;;
10303;SDS011;5197;48.152;8.590;2024-01-30T12:36:24;16.70;;;8.60;;
10303;SDS011;5197;48.152;8.590;2024-01-30T12:38:52;10.87;;;7.60;;
10303;SDS011;5197;48.152;8.590;2024-01-30T12:41:19;13.23;;;8.10;;
10303;SDS011;5197;48.152;8.590;2024-01-30T12:43:47;8.53;;;6.90;;
10303;SDS011;5197;48.152;8.590;2024-01-30T12:46:16;11.30;;;6.77;;
10303;SDS011;5197;48.152;8.590;2024-01-30T12:48:44;10.50;;;7.23;;
10303;SDS011;5197;48.152;8.590;2024-01-30T12:51:11;12.97;;;8.40;;
10303;SDS011;5197;48.152;8.590;2024-01-30T12:53:38;15.33;;;10.40;;
10303;SDS011;5197;48.152;8.590;2024-01-30T12:56:06;14.00;;;9.40;;
10303;SDS011;5197;48.152;8.590;2024-01-30T12:58:33;12.27;;;9.37;;
10303;SDS011;5197;48.152;8.590;2024-01-30T13:01:00;14.40;;;9.07;;
10303;SDS011;5197;48.152;8.590;2024-01-30T13:03:27;11.40;;;8.80;;
10303;SDS011;5197;48.152;8.590;2024-01-30T13:05:55;11.67;;;7.73;;
10303;SDS011;5197;48.152;8.590;2024-01-30T13:08:23;19.03;;;9.50;;
10303;SDS011;5197;48.152;8.590;2024-01-30T13:10:50;12.70;;;7.37;;
10303;SDS011;5197;48.152;8.590;2024-01-30T13:13:17;13.47;;;7.97;;
10303;SDS011;5197;48.152;8.590;2024-01-30T13:15:47;11.73;;;8.20;;
10303;SDS011;5197;48.152;8.590;2024-01-30T13:18:14;10.70;;;8.13;;
10303;SDS011;5197;48.152;8.590;2024-01-30T13:20:41;10.60;;;7.90;;
10303;SDS011;5197;48.152;8.590;2024-01-30T13:23:08;12.40;;;7.37;;
10303;SDS011;5197;48.152;8.590;2024-01-30T13:25:35;9.80;;;6.83;;
10303;SDS011;5197;48.152;8.590;2024-01-30T13:28:03;10.37;;;7.10;;
10303;SDS011;5197;48.152;8.590;2024-01-30T13:30:30;8.33;;;6.73;;
10303;SDS011;5197;48.152;8.590;2024-01-30T13:33:00;16.80;;;8.80;;
10303;SDS011;5197;48.152;8.590;2024-01-30T13:35:28;9.40;;;6.17;;
10303;SDS011;5197;48.152;8.590;2024-01-30T13:37:55;10.97;;;7.57;;
10303;SDS011;5197;48.152;8.590;2024-01-30T13:40:22;9.17;;;7.10;;
10303;SDS011;5197;48.152;8.590;2024-01-30T13:42:49;13.83;;;9.20;;
10303;SDS011;5197;48.152;8.590;2024-01-30T13:45:16;17.23;;;8.30;;
10303;SDS011;5197;48.152;8.590;2024-01-30T13:47:43;9.83;;;7.67;;
10303;SDS011;5197;48.152;8.590;2024-01-30T13:50:11;8.87;;;6.10;;
10303;SDS011;5197;48.152;8.590;2024-01-30T13:52:41;11.77;;;7.03;;
10303;SDS011;5197;48.152;8.590;2024-01-30T13:55:11;10.50;;;6.57;;
10303;SDS011;5197;48.152;8.590;2024-01-30T13:57:39;10.53;;;6.80;;
10303;SDS011;5197;48.152;8.590;2024-01-30T14:00:06;16.23;;;5.67;;
10303;SDS011;5197;48.152;8.590;2024-01-30T14:02:34;9.83;;;5.23;;
10303;SDS011;5197;48.152;8.590;2024-01-30T14:05:01;11.07;;;5.13;;
10303;SDS011;5197;48.152;8.590;2024-01-30T14:07:31;8.63;;;5.30;;
10303;SDS011;5197;48.152;8.590;2024-01-30T14:09:58;8.97;;;5.60;;
10303;SDS011;5197;48.152;8.590;2024-01-30T14:12:25;11.93;;;6.90;;
10303;SDS011;5197;48.152;8.590;2024-01-30T14:14:52;15.67;;;9.03;;
10303;SDS011;5197;48.152;8.590;2024-01-30T14:17:19;36.00;;;15.37;;
10303;SDS011;5197;48.152;8.590;2024-01-30T14:19:46;16.10;;;7.07;;
10303;SDS011;5197;48.152;8.590;2024-01-30T14:22:13;18.97;;;9.23;;
10303;SDS011;5197;48.152;8.590;2024-01-30T14:24:40;10.23;;;7.27;;
10303;SDS011;5197;48.152;8.590;2024-01-30T14:27:08;22.83;;;6.23;;
10303;SDS011;5197;48.152;8.590;2024-01-30T14:29:36;6.27;;;5.67;;
10303;SDS011;5197;48.152;8.590;2024-01-30T14:32:03;8.37;;;5.37;;
10303;SDS011;5197;48.152;8.590;2024-01-30T14:34:30;10.13;;;5.90;;
10303;SDS011;5197;48.152;8.590;2024-01-30T14:36:58;9.40;;;5.70;;
10303;SDS011;5197;48.152;8.590;2024-01-30T14:39:25;12.20;;;5.50;;
10303;SDS011;5197;48.152;8.590;2024-01-30T14:41:52;11.87;;;5.80;;
10303;SDS011;5197;48.152;8.590;2024-01-30T14:44:20;11.67;;;5.67;;
10303;SDS011;5197;48.152;8.590;2024-01-30T14:46:47;14.17;;;5.97;;
10303;SDS011;5197;48.152;8.590;2024-01-30T14:49:14;10.33;;;6.03;;
10303;SDS011;5197;48.152;8.590;2024-01-30T14:51:42;15.37;;;5.57;;
10303;SDS011;5197;48.152;8.590;2024-01-30T14:54:09;8.70;;;5.40;;
10303;SDS011;5197;48.152;8.590;2024-01-30T14:56:37;10.23;;;4.90;;